Time;durP1;ratioP1;P1;durP2;ratioP2;P2;SDS_P1;SDS_P2;PMS_P1;PMS_P2;Temp;Humidity;BMP_temperature;BMP_pressure;BME280_temperature;BME280_humidity;BME280_pressure;Samples;Min_cycle;Max_cycle;Signal;HPM_P1;HPM_P2
2022/09/11 00:00:34;;;;;;;0.57;0.57;;;21.70;52.30;;;;;;5072846;28;45317;-73
2022/09/11 00:03:01;;;;;;;1.55;0.55;;;21.70;52.30;;;;;;5072807;28;45300;-73
2022/09/11 00:05:28;;;;;;;0.45;0.45;;;21.70;52.30;;;;;;5072467;28;46321;-73
2022/09/11 00:07:55;;;;;;;0.68;0.50;;;21.70;52.30;;;;;;5072403;28;45161;-73
2022/09/11 00:10:24;;;;;;;0.40;0.40;;;21.70;52.30;;;;;;5072628;28;45244;-73
2022/09/11 00:12:51;;;;;;;1.05;0.65;;;21.70;52.30;;;;;;5073100;28;45515;-74
2022/09/11 00:15:18;;;;;;;0.77;0.40;;;21.70;52.30;;;;;;5072004;28;46692;-73
2022/09/11 00:17:45;;;;;;;0.38;0.38;;;21.70;52.30;;;;;;5072682;28;45334;-73
2022/09/11 00:20:12;;;;;;;0.43;0.40;;;21.70;52.30;;;;;;5072663;28;45412;-73
2022/09/11 00:22:38;;;;;;;0.80;0.50;;;21.70;52.30;;;;;;5072702;28;45466;-73
2022/09/11 00:25:06;;;;;;;1.48;0.40;;;21.70;52.30;;;;;;5073704;28;45784;-73
2022/09/11 00:27:34;;;;;;;0.52;0.50;;;21.70;52.30;;;;;;5072166;28;45433;-73
2022/09/11 00:30:02;;;;;;;0.43;0.40;;;21.70;52.30;;;;;;5077836;28;45198;-73
2022/09/11 00:32:32;;;;;;;0.73;0.50;;;21.70;52.40;;;;;;5092992;28;45617;-73
2022/09/11 00:34:59;;;;;;;0.40;0.40;;;21.70;52.40;;;;;;5088187;28;46694;-73
2022/09/11 00:37:26;;;;;;;0.50;0.50;;;21.60;52.20;;;;;;5072217;28;45178;-73
2022/09/11 00:39:53;;;;;;;0.43;0.43;;;21.60;52.30;;;;;;5072278;28;45224;-73
2022/09/11 00:42:20;;;;;;;0.50;0.35;;;21.60;52.30;;;;;;5088996;28;45253;-73
2022/09/11 00:45:00;;;;;;;0.30;0.30;;;21.70;52.40;;;;;;5092448;28;45315;-73
2022/09/11 00:47:27;;;;;;;1.45;0.45;;;21.60;52.40;;;;;;5092424;28;45190;-73
2022/09/11 00:49:54;;;;;;;0.40;0.40;;;21.60;52.40;;;;;;5092474;28;45246;-73
2022/09/11 00:52:23;;;;;;;0.35;0.35;;;21.60;52.30;;;;;;5092744;28;45409;-73
2022/09/11 00:54:51;;;;;;;0.32;0.32;;;21.60;52.30;;;;;;5092298;28;45375;-73
2022/09/11 00:57:19;;;;;;;0.32;0.30;;;21.60;52.20;;;;;;5089119;27;45232;-73
2022/09/11 00:59:46;;;;;;;0.32;0.32;;;21.60;52.20;;;;;;5089418;28;45510;-73
2022/09/11 01:02:15;;;;;;;0.40;0.40;;;21.70;52.30;;;;;;5089122;28;45274;-73
2022/09/11 01:04:41;;;;;;;0.50;0.50;;;21.70;52.30;;;;;;5088888;28;46628;-73
2022/09/11 01:07:09;;;;;;;0.30;0.30;;;21.60;52.30;;;;;;5088730;28;45157;-73
2022/09/11 01:09:35;;;;;;;0.40;0.40;;;21.70;52.30;;;;;;5089006;28;45467;-73
2022/09/11 01:12:05;;;;;;;0.40;0.38;;;21.60;52.30;;;;;;5089089;28;45450;-73
2022/09/11 01:14:37;;;;;;;0.40;0.40;;;21.60;52.30;;;;;;5088764;28;46601;-73
2022/09/11 01:17:11;;;;;;;0.40;0.40;;;21.60;52.20;;;;;;5068308;28;45297;-73
2022/09/11 01:20:04;;;;;;;0.50;0.50;;;21.60;52.30;;;;;;5068396;28;45364;-73
2022/09/11 01:22:44;;;;;;;0.40;0.40;;;21.70;52.40;;;;;;5058796;28;45440;-73
2022/09/11 01:25:18;;;;;;;0.47;0.47;;;21.60;52.30;;;;;;5052998;28;45425;-73
2022/09/11 01:27:48;;;;;;;0.20;0.20;;;21.60;52.40;;;;;;5048025;28;45369;-73
2022/09/11 01:30:16;;;;;;;0.40;0.40;;;21.60;52.30;;;;;;5047910;28;45186;-73
2022/09/11 01:33:00;;;;;;;0.45;0.45;;;21.60;52.30;;;;;;5048270;28;45265;-73
2022/09/11 01:35:33;;;;;;;0.35;0.35;;;21.60;52.30;;;;;;5047669;28;46391;-73
2022/09/11 01:38:03;;;;;;;0.40;0.40;;;21.60;52.20;;;;;;5047875;28;45223;-73
2022/09/11 01:40:31;;;;;;;0.30;0.25;;;21.60;52.30;;;;;;5047717;28;45301;-73
2022/09/11 01:43:02;;;;;;;0.50;0.50;;;21.60;52.20;;;;;;5047980;28;45166;-73
2022/09/11 01:45:30;;;;;;;0.22;0.22;;;21.60;52.30;;;;;;5047641;28;46598;-73
2022/09/11 01:47:57;;;;;;;0.50;0.50;;;21.50;52.20;;;;;;5046926;28;45182;-71
2022/09/11 01:50:24;;;;;;;0.20;0.20;;;21.60;52.30;;;;;;5047392;28;45195;-72
2022/09/11 01:52:54;;;;;;;0.40;0.35;;;21.50;52.30;;;;;;5047522;28;45511;-72
2022/09/11 01:55:22;;;;;;;0.32;0.32;;;21.50;52.30;;;;;;5047423;28;47336;-73
2022/09/11 01:57:51;;;;;;;0.40;0.40;;;21.50;52.20;;;;;;5047542;28;45148;-73
2022/09/11 02:00:19;;;;;;;0.40;0.40;;;21.50;52.20;;;;;;5047715;28;45235;-73
2022/09/11 02:02:48;;;;;;;0.40;0.40;;;21.50;52.20;;;;;;5047769;28;45263;-73
2022/09/11 02:05:16;;;;;;;0.40;0.30;;;21.60;52.20;;;;;;5047308;28;45252;-72
2022/09/11 02:07:45;;;;;;;0.30;0.30;;;21.50;52.20;;;;;;5046406;28;45317;-73
2022/09/11 02:10:14;;;;;;;0.30;0.30;;;21.60;52.30;;;;;;5046934;28;45219;-73
2022/09/11 02:12:43;;;;;;;0.50;0.40;;;21.50;52.30;;;;;;5047481;28;45191;-73
2022/09/11 02:15:10;;;;;;;0.25;0.25;;;21.50;52.30;;;;;;5051343;28;45239;-73
2022/09/11 02:17:42;;;;;;;1.40;0.45;;;21.50;52.20;;;;;;5067367;28;45210;-73
2022/09/11 02:20:09;;;;;;;0.73;0.40;;;21.50;52.30;;;;;;5067536;28;45453;-72
2022/09/11 02:22:36;;;;;;;1.23;0.55;;;21.50;52.80;;;;;;5067778;28;45188;-72
2022/09/11 02:25:04;;;;;;;0.40;0.40;;;21.60;52.20;;;;;;5066981;28;46502;-72
2022/09/11 02:27:32;;;;;;;0.40;0.40;;;21.50;52.30;;;;;;5065148;28;45353;-73
2022/09/11 02:29:59;;;;;;;0.40;0.40;;;21.50;52.20;;;;;;5066542;28;45328;-73
2022/09/11 02:32:26;;;;;;;0.45;0.45;;;21.50;52.20;;;;;;5067569;28;45300;-73
2022/09/11 02:34:54;;;;;;;0.40;0.40;;;21.50;52.20;;;;;;5066174;28;47554;-73
2022/09/11 02:37:31;;;;;;;0.63;0.57;;;21.50;52.30;;;;;;5067139;28;45332;-72
2022/09/11 02:40:23;;;;;;;0.40;0.40;;;21.50;52.90;;;;;;5067216;28;45245;-72
2022/09/11 02:43:00;;;;;;;0.30;0.30;;;21.50;52.30;;;;;;5047216;28;45203;-73
2022/09/11 02:45:34;;;;;;;0.30;0.30;;;21.50;52.30;;;;;;5046566;28;45721;-73
2022/09/11 02:48:09;;;;;;;0.60;0.40;;;21.50;52.30;;;;;;5046808;28;45416;-73
2022/09/11 02:50:41;;;;;;;0.60;0.40;;;21.50;52.20;;;;;;5046873;28;45268;-73
2022/09/11 02:53:10;;;;;;;0.40;0.30;;;21.50;52.30;;;;;;5047075;28;45205;-72
2022/09/11 02:55:44;;;;;;;0.30;0.30;;;21.50;52.30;;;;;;5046430;28;46718;-72
2022/09/11 02:58:15;;;;;;;2.15;0.45;;;21.50;52.30;;;;;;5046576;28;45322;-72
2022/09/11 03:00:42;;;;;;;0.40;0.40;;;21.50;52.30;;;;;;5046720;28;45215;-72
2022/09/11 03:03:09;;;;;;;0.32;0.30;;;21.50;52.20;;;;;;5046009;28;45333;-73
2022/09/11 03:05:36;;;;;;;0.52;0.40;;;21.50;52.30;;;;;;5046266;28;46411;-73
2022/09/11 03:08:04;;;;;;;0.30;0.30;;;21.50;52.30;;;;;;5046322;28;45345;-73
2022/09/11 03:10:31;;;;;;;0.55;0.40;;;21.50;52.30;;;;;;5046627;28;45253;-72
2022/09/11 03:12:58;;;;;;;0.43;0.40;;;21.50;52.30;;;;;;5046740;28;45203;-73
2022/09/11 03:15:25;;;;;;;0.32;0.32;;;21.50;52.90;;;;;;5045774;28;46947;-73
2022/09/11 03:17:52;;;;;;;0.45;0.45;;;21.50;52.30;;;;;;5046008;28;45411;-72
2022/09/11 03:20:20;;;;;;;0.40;0.40;;;21.50;52.30;;;;;;5045534;28;45306;-72
2022/09/11 03:22:47;;;;;;;0.35;0.35;;;21.50;52.30;;;;;;5046354;28;45532;-72
2022/09/11 03:25:16;;;;;;;0.40;0.40;;;21.40;52.20;;;;;;5065894;28;46771;-73
2022/09/11 03:27:43;;;;;;;0.40;0.40;;;21.50;52.30;;;;;;5086409;28;45407;-72
2022/09/11 03:30:10;;;;;;;0.30;0.30;;;21.40;52.30;;;;;;5079019;28;45301;-73
2022/09/11 03:32:37;;;;;;;0.40;0.40;;;21.50;52.30;;;;;;5066399;28;45341;-72
2022/09/11 03:35:04;;;;;;;1.00;0.50;;;21.40;52.30;;;;;;5070796;28;45488;-72
2022/09/11 03:37:31;;;;;;;1.15;0.60;;;21.40;52.20;;;;;;5086161;28;45379;-73
2022/09/11 03:40:00;;;;;;;0.60;0.50;;;21.50;52.30;;;;;;5086438;28;45315;-72
2022/09/11 03:42:28;;;;;;;0.35;0.30;;;21.40;52.20;;;;;;5069058;28;45252;-74
2022/09/11 03:44:55;;;;;;;0.40;0.40;;;21.40;52.20;;;;;;5065557;28;46474;-73
2022/09/11 03:47:22;;;;;;;0.30;0.30;;;21.50;52.30;;;;;;5065621;28;45333;-72
2022/09/11 03:49:49;;;;;;;0.40;0.32;;;21.40;52.30;;;;;;5065497;28;45234;-74
2022/09/11 03:52:15;;;;;;;0.70;0.40;;;21.40;52.20;;;;;;5066323;28;45226;-73
2022/09/11 03:54:42;;;;;;;0.40;0.40;;;21.50;52.20;;;;;;5065760;28;45676;-73
2022/09/11 03:57:09;;;;;;;0.82;0.50;;;21.50;52.20;;;;;;5065943;28;45178;-73
2022/09/11 03:59:38;;;;;;;0.70;0.50;;;21.40;52.20;;;;;;5066331;28;45262;-73
2022/09/11 04:02:05;;;;;;;0.35;0.35;;;21.40;52.20;;;;;;5066149;28;45415;-73
2022/09/11 04:04:31;;;;;;;0.95;0.40;;;21.40;52.20;;;;;;5065833;28;46621;-73
2022/09/11 04:06:58;;;;;;;0.30;0.30;;;21.40;52.30;;;;;;5065961;28;45151;-73
2022/09/11 04:09:25;;;;;;;0.38;0.32;;;21.40;52.20;;;;;;5065961;28;45256;-73
2022/09/11 04:11:52;;;;;;;0.80;0.57;;;21.40;52.30;;;;;;5066042;28;45628;-73
2022/09/11 04:14:21;;;;;;;0.30;0.30;;;21.40;52.30;;;;;;5065656;28;45460;-73
2022/09/11 04:16:49;;;;;;;0.30;0.30;;;21.30;52.20;;;;;;5065340;28;45229;-73
2022/09/11 04:19:17;;;;;;;0.60;0.47;;;21.40;52.30;;;;;;5066198;28;45511;-73
2022/09/11 04:21:44;;;;;;;0.40;0.40;;;21.40;52.20;;;;;;5066118;28;45607;-73
2022/09/11 04:24:11;;;;;;;0.50;0.50;;;21.40;52.20;;;;;;5069379;28;45296;-73
2022/09/11 04:26:38;;;;;;;0.38;0.38;;;21.40;52.20;;;;;;5083150;28;45442;-73
2022/09/11 04:29:05;;;;;;;0.40;0.40;;;21.40;52.20;;;;;;5086011;28;45252;-73
2022/09/11 04:31:32;;;;;;;0.70;0.32;;;21.30;52.20;;;;;;5068061;28;45432;-72
2022/09/11 04:34:00;;;;;;;0.50;0.40;;;21.30;52.20;;;;;;5068192;28;46375;-73
2022/09/11 04:36:28;;;;;;;0.40;0.40;;;21.30;52.20;;;;;;5085425;28;45142;-73
2022/09/11 04:38:56;;;;;;;0.30;0.30;;;21.30;52.20;;;;;;5089617;28;45230;-73
2022/09/11 04:41:23;;;;;;;1.00;0.38;;;21.30;52.30;;;;;;5081034;28;45243;-73
2022/09/11 04:43:53;;;;;;;0.40;0.40;;;21.30;52.40;;;;;;5068934;28;47658;-73
2022/09/11 04:46:20;;;;;;;0.25;0.25;;;21.30;52.30;;;;;;5068901;28;45236;-73
2022/09/11 04:48:47;;;;;;;0.73;0.40;;;21.30;52.20;;;;;;5068900;28;45344;-73
2022/09/11 04:51:18;;;;;;;0.30;0.30;;;21.30;52.20;;;;;;5069086;28;45240;-73
2022/09/11 04:53:45;;;;;;;0.40;0.40;;;21.30;52.30;;;;;;5068893;28;45241;-73
2022/09/11 04:56:13;;;;;;;0.63;0.50;;;21.30;52.50;;;;;;5068920;28;45323;-73
2022/09/11 04:58:39;;;;;;;0.45;0.45;;;21.30;52.30;;;;;;5069044;28;45422;-73
2022/09/11 05:01:07;;;;;;;0.45;0.45;;;21.30;52.20;;;;;;5068912;28;45303;-73
2022/09/11 05:03:33;;;;;;;0.50;0.50;;;21.30;52.30;;;;;;5068635;28;46701;-73
2022/09/11 05:06:05;;;;;;;0.35;0.35;;;21.30;52.20;;;;;;5068633;28;45218;-73
2022/09/11 05:08:33;;;;;;;0.40;0.40;;;21.30;52.30;;;;;;5068584;28;45295;-73
2022/09/11 05:11:00;;;;;;;0.45;0.20;;;21.20;52.30;;;;;;5068580;28;45186;-72
2022/09/11 05:13:27;;;;;;;0.55;0.50;;;21.20;52.30;;;;;;5068111;28;46712;-72
2022/09/11 05:15:53;;;;;;;0.30;0.30;;;21.30;52.30;;;;;;5067638;28;45513;-73
2022/09/11 05:18:20;;;;;;;0.30;0.30;;;21.30;52.40;;;;;;5067325;28;45332;-73
2022/09/11 05:20:47;;;;;;;0.30;0.30;;;21.20;52.30;;;;;;5067896;28;45443;-72
2022/09/11 05:23:14;;;;;;;0.50;0.50;;;21.20;52.30;;;;;;5067440;28;45650;-73
2022/09/11 05:25:42;;;;;;;0.57;0.47;;;21.20;52.30;;;;;;5082621;28;45294;-73
2022/09/11 05:28:10;;;;;;;0.45;0.45;;;21.30;52.40;;;;;;5088429;28;45300;-73
2022/09/11 05:30:37;;;;;;;0.30;0.30;;;21.20;52.30;;;;;;5076995;28;45426;-73
2022/09/11 05:33:05;;;;;;;0.40;0.40;;;21.20;52.30;;;;;;5067653;28;45219;-73
2022/09/11 05:35:32;;;;;;;0.32;0.32;;;21.20;52.40;;;;;;5076506;28;45223;-73
2022/09/11 05:37:59;;;;;;;1.17;0.50;;;21.20;52.40;;;;;;5088309;28;45330;-73
2022/09/11 05:40:25;;;;;;;0.40;0.30;;;21.20;52.30;;;;;;5087712;28;45296;-73
2022/09/11 05:42:54;;;;;;;0.50;0.40;;;21.20;52.40;;;;;;5067865;28;45370;-73
2022/09/11 05:45:21;;;;;;;0.45;0.35;;;21.20;52.40;;;;;;5067662;28;45262;-73
2022/09/11 05:47:47;;;;;;;0.40;0.40;;;21.20;52.30;;;;;;5067855;28;45379;-73
2022/09/11 05:50:14;;;;;;;0.40;0.40;;;21.20;52.30;;;;;;5067759;28;45479;-73
2022/09/11 05:52:41;;;;;;;0.50;0.40;;;21.20;52.40;;;;;;5067411;28;45457;-73
2022/09/11 05:55:08;;;;;;;0.28;0.28;;;21.20;52.40;;;;;;5067536;28;45212;-75
2022/09/11 05:57:35;;;;;;;0.63;0.50;;;21.20;52.40;;;;;;5064953;28;45264;-73
2022/09/11 06:00:04;;;;;;;0.40;0.30;;;21.20;52.40;;;;;;5067835;28;45229;-72
2022/09/11 06:02:31;;;;;;;0.75;0.52;;;21.20;52.50;;;;;;5067242;28;46181;-72
2022/09/11 06:04:58;;;;;;;0.40;0.40;;;21.20;52.50;;;;;;5067364;28;45306;-73
2022/09/11 06:07:25;;;;;;;0.40;0.40;;;21.20;52.50;;;;;;5067144;28;45252;-73
2022/09/11 06:09:52;;;;;;;0.82;0.40;;;21.20;52.50;;;;;;5067472;28;45294;-72
2022/09/11 06:12:19;;;;;;;0.40;0.40;;;21.20;52.50;;;;;;5067270;28;46646;-72
2022/09/11 06:14:45;;;;;;;0.30;0.30;;;21.20;52.50;;;;;;5067041;28;45320;-73
2022/09/11 06:17:14;;;;;;;0.50;0.40;;;21.20;52.50;;;;;;5067296;28;45249;-73
2022/09/11 06:19:40;;;;;;;0.47;0.47;;;21.20;52.50;;;;;;5067482;28;45256;-73
2022/09/11 06:22:07;;;;;;;0.40;0.40;;;21.20;52.50;;;;;;5067213;28;46199;-73
2022/09/11 06:24:34;;;;;;;0.52;0.28;;;21.20;52.50;;;;;;5072427;28;45339;-73
2022/09/11 06:27:01;;;;;;;0.43;0.40;;;21.20;52.50;;;;;;5087553;28;45285;-72
2022/09/11 06:29:30;;;;;;;0.55;0.50;;;21.20;53.10;;;;;;5085802;28;45399;-72
2022/09/11 06:31:56;;;;;;;0.45;0.45;;;21.20;52.40;;;;;;5066973;28;45579;-72
2022/09/11 06:34:25;;;;;;;0.32;0.32;;;21.20;52.40;;;;;;5066929;28;45222;-72
2022/09/11 06:36:52;;;;;;;0.35;0.32;;;21.20;52.40;;;;;;5086948;28;45288;-73
2022/09/11 06:39:21;;;;;;;1.27;0.47;;;21.20;52.40;;;;;;5087853;28;45281;-74
2022/09/11 06:41:49;;;;;;;0.73;0.60;;;21.20;52.40;;;;;;5075371;28;45252;-74
2022/09/11 06:44:16;;;;;;;0.40;0.40;;;21.20;52.40;;;;;;5067120;28;45292;-73
2022/09/11 06:46:43;;;;;;;0.40;0.40;;;21.20;52.40;;;;;;5067196;28;45315;-73
2022/09/11 06:49:10;;;;;;;0.22;0.22;;;21.20;52.30;;;;;;5067150;28;45297;-73
2022/09/11 06:51:38;;;;;;;0.40;0.40;;;21.20;52.30;;;;;;5066295;28;45792;-74
2022/09/11 06:54:05;;;;;;;0.28;0.28;;;21.20;52.30;;;;;;5065899;28;45308;-74
2022/09/11 06:56:32;;;;;;;0.55;0.40;;;21.30;52.20;;;;;;5066931;28;45294;-74
2022/09/11 06:58:59;;;;;;;0.43;0.40;;;21.30;52.20;;;;;;5065862;28;45188;-75
2022/09/11 07:01:27;;;;;;;0.85;0.50;;;21.30;52.20;;;;;;5065983;28;46275;-75
2022/09/11 07:03:54;;;;;;;0.47;0.47;;;21.30;52.10;;;;;;5067010;28;45248;-75
2022/09/11 07:06:21;;;;;;;0.47;0.40;;;21.30;52.20;;;;;;5066948;28;45309;-74
2022/09/11 07:08:52;;;;;;;1.27;0.50;;;21.40;52.20;;;;;;5066814;28;45542;-74
2022/09/11 07:11:19;;;;;;;0.82;0.50;;;21.30;52.30;;;;;;5066513;28;46448;-74
2022/09/11 07:13:46;;;;;;;0.50;0.50;;;21.30;52.30;;;;;;5066804;28;45251;-75
2022/09/11 07:16:13;;;;;;;1.30;0.45;;;21.40;52.30;;;;;;5066337;28;45262;-74
2022/09/11 07:18:40;;;;;;;0.40;0.40;;;21.40;52.30;;;;;;5067010;28;45223;-74
2022/09/11 07:21:07;;;;;;;0.60;0.60;;;21.40;52.50;;;;;;5066269;28;48208;-74
2022/09/11 07:23:34;;;;;;;0.40;0.40;;;21.40;52.60;;;;;;5066405;28;45286;-74
2022/09/11 07:26:04;;;;;;;0.80;0.73;;;21.30;52.70;;;;;;5080635;28;45294;-74
2022/09/11 07:28:31;;;;;;;0.70;0.50;;;21.40;52.90;;;;;;5086910;28;45494;-74
2022/09/11 07:31:10;;;;;;;1.23;0.43;;;21.30;52.90;;;;;;5068623;28;46400;-74
2022/09/11 07:33:37;;;;;;;1.58;0.50;;;21.40;52.90;;;;;;5061870;28;45521;-74
2022/09/11 07:36:10;;;;;;;0.45;0.45;;;21.40;53.20;;;;;;5061724;28;45514;-74
2022/09/11 07:38:39;;;;;;;0.77;0.50;;;21.40;53.20;;;;;;5056241;28;45424;-74
2022/09/11 07:41:07;;;;;;;1.20;0.50;;;21.40;53.10;;;;;;5060100;28;45550;-73
2022/09/11 07:43:34;;;;;;;0.77;0.50;;;21.40;53.10;;;;;;5037877;28;45619;-74
2022/09/11 07:46:01;;;;;;;0.82;0.60;;;21.40;53.10;;;;;;5045101;28;45297;-74
2022/09/11 07:48:28;;;;;;;1.20;0.57;;;21.40;53.00;;;;;;5045970;28;45316;-75
2022/09/11 07:50:57;;;;;;;1.27;0.63;;;21.50;53.20;;;;;;5046028;28;45494;-74
2022/09/11 07:53:24;;;;;;;1.42;0.70;;;21.50;53.30;;;;;;5046073;28;45190;-74
2022/09/11 07:55:51;;;;;;;1.10;0.63;;;21.50;53.20;;;;;;5046148;28;45297;-73
2022/09/11 07:58:19;;;;;;;3.08;1.10;;;21.50;54.20;;;;;;5045657;28;45427;-73
2022/09/11 08:00:46;;;;;;;4.20;0.93;;;21.50;54.90;;;;;;5045223;28;45459;-73
2022/09/11 08:03:13;;;;;;;0.68;0.60;;;21.50;56.30;;;;;;5045695;28;45146;-72
2022/09/11 08:05:40;;;;;;;0.68;0.60;;;21.40;56.10;;;;;;5046350;28;45460;-73
2022/09/11 08:08:07;;;;;;;2.30;1.10;;;21.40;56.60;;;;;;5049050;28;45446;-73
2022/09/11 08:10:39;;;;;;;0.93;0.57;;;21.40;56.10;;;;;;5040122;28;45479;-74
2022/09/11 08:13:06;;;;;;;1.98;0.70;;;21.40;56.00;;;;;;5049206;28;45304;-72
2022/09/11 08:15:36;;;;;;;3.03;0.75;;;21.40;56.80;;;;;;5048070;28;45277;-73
2022/09/11 08:18:03;;;;;;;1.73;0.80;;;21.40;56.90;;;;;;5048891;28;45225;-73
2022/09/11 08:20:31;;;;;;;1.67;0.90;;;21.40;56.60;;;;;;5048783;28;45376;-73
2022/09/11 08:22:58;;;;;;;2.55;0.80;;;21.40;56.50;;;;;;5048637;28;45330;-72
2022/09/11 08:25:27;;;;;;;1.23;0.73;;;21.40;56.50;;;;;;5062857;28;45280;-73
2022/09/11 08:27:54;;;;;;;4.50;0.80;;;21.40;56.50;;;;;;5068795;28;45552;-73
2022/09/11 08:30:21;;;;;;;1.00;0.75;;;21.40;56.00;;;;;;5068803;28;45294;-73
2022/09/11 08:32:49;;;;;;;1.20;0.82;;;21.50;56.20;;;;;;5068577;28;45218;-73
2022/09/11 08:35:16;;;;;;;1.90;0.80;;;21.50;56.50;;;;;;5068785;28;45305;-72
2022/09/11 08:37:43;;;;;;;0.75;0.75;;;21.50;56.40;;;;;;5068786;28;45202;-72
2022/09/11 08:40:10;;;;;;;1.13;0.70;;;21.50;56.20;;;;;;5068559;28;45430;-73
2022/09/11 08:42:37;;;;;;;2.03;0.70;;;21.40;55.90;;;;;;5068768;28;45334;-73
2022/09/11 08:45:05;;;;;;;2.85;0.70;;;21.50;55.90;;;;;;5085024;28;45321;-74
2022/09/11 08:47:34;;;;;;;1.65;0.70;;;21.50;55.70;;;;;;5089296;28;45403;-73
2022/09/11 08:50:05;;;;;;;2.75;0.80;;;21.50;55.80;;;;;;5088738;28;45434;-72
2022/09/11 08:52:32;;;;;;;1.08;0.70;;;21.50;55.90;;;;;;5088709;28;45205;-72
2022/09/11 08:54:58;;;;;;;1.85;0.93;;;21.60;55.70;;;;;;5089042;28;45255;-73
2022/09/11 08:57:28;;;;;;;1.55;0.95;;;21.60;56.60;;;;;;5088192;28;45435;-73
2022/09/11 09:00:09;;;;;;;1.50;0.90;;;21.60;56.20;;;;;;5088670;28;45331;-73
2022/09/11 09:02:56;;;;;;;1.25;0.90;;;21.60;56.00;;;;;;5088936;28;45248;-73
2022/09/11 09:05:31;;;;;;;0.73;0.63;;;21.60;55.70;;;;;;5088683;28;45287;-73
2022/09/11 09:08:04;;;;;;;0.95;0.60;;;21.60;55.60;;;;;;5089120;28;45573;-73
2022/09/11 09:10:39;;;;;;;0.65;0.60;;;21.60;55.90;;;;;;5088732;28;46876;-74
2022/09/11 09:13:09;;;;;;;1.33;0.80;;;21.70;55.20;;;;;;5087634;28;45384;-74
2022/09/11 09:15:41;;;;;;;1.08;0.60;;;21.80;55.30;;;;;;5080805;28;45502;-74
2022/09/11 09:18:10;;;;;;;2.50;0.90;;;21.80;55.10;;;;;;5067992;28;45411;-74
2022/09/11 09:20:39;;;;;;;2.30;0.75;;;21.90;55.20;;;;;;5068180;28;46395;-74
2022/09/11 09:23:08;;;;;;;2.28;0.93;;;21.90;55.30;;;;;;5068087;28;45423;-74
2022/09/11 09:25:37;;;;;;;1.30;0.70;;;22.00;55.30;;;;;;5064571;28;45205;-73
2022/09/11 09:28:06;;;;;;;1.52;0.80;;;22.00;55.50;;;;;;5068453;28;45174;-74
2022/09/11 09:30:39;;;;;;;1.02;0.80;;;22.00;55.40;;;;;;5067838;28;45460;-73
2022/09/11 09:33:26;;;;;;;1.10;0.80;;;22.00;55.40;;;;;;5067885;28;45315;-73
2022/09/11 09:35:54;;;;;;;1.75;0.75;;;22.00;55.50;;;;;;5068289;28;45256;-74
2022/09/11 09:38:22;;;;;;;1.65;1.00;;;22.10;55.50;;;;;;5068243;28;45618;-73
2022/09/11 09:40:53;;;;;;;0.75;0.70;;;22.10;55.40;;;;;;5067725;28;46378;-74
2022/09/11 09:43:27;;;;;;;1.42;1.00;;;22.20;55.40;;;;;;5067792;28;45139;-73
2022/09/11 09:46:05;;;;;;;1.20;0.70;;;22.20;55.20;;;;;;5068041;28;45288;-73
2022/09/11 09:48:33;;;;;;;2.45;1.00;;;22.30;55.30;;;;;;5067947;28;45248;-73
2022/09/11 09:51:02;;;;;;;2.33;0.80;;;22.30;55.30;;;;;;5067642;28;45315;-73
2022/09/11 09:53:33;;;;;;;2.83;0.60;;;22.40;55.20;;;;;;5067590;28;45340;-73
2022/09/11 09:56:00;;;;;;;1.17;0.70;;;22.40;55.10;;;;;;5067795;28;45373;-74
2022/09/11 09:58:30;;;;;;;1.08;0.90;;;22.40;55.10;;;;;;5067368;28;45337;-74
2022/09/11 10:00:57;;;;;;;0.80;0.77;;;22.50;55.20;;;;;;5067376;28;45309;-73
2022/09/11 10:03:24;;;;;;;1.85;0.68;;;22.50;55.40;;;;;;5067113;28;45305;-73
2022/09/11 10:05:53;;;;;;;1.05;0.63;;;22.50;55.70;;;;;;5066263;28;45300;-73
2022/09/11 10:08:30;;;;;;;2.42;0.85;;;22.60;55.90;;;;;;5067676;28;45285;-74
2022/09/11 10:10:57;;;;;;;3.10;0.80;;;22.50;55.90;;;;;;5063618;28;46585;-73
2022/09/11 10:13:26;;;;;;;5.45;0.80;;;22.60;56.00;;;;;;5066042;28;45221;-74
2022/09/11 10:15:54;;;;;;;1.65;0.80;;;22.60;56.00;;;;;;5058324;28;45466;-74
2022/09/11 10:18:38;;;;;;;0.98;0.77;;;22.60;55.90;;;;;;5059167;28;45246;-73
2022/09/11 10:21:22;;;;;;;1.83;1.13;;;22.70;56.10;;;;;;5046720;28;47603;-73
2022/09/11 10:23:53;;;;;;;1.83;0.90;;;22.70;56.40;;;;;;5046643;28;45292;-73
2022/09/11 10:26:24;;;;;;;1.08;0.73;;;22.80;56.70;;;;;;5046816;28;45601;-74
2022/09/11 10:28:51;;;;;;;0.95;0.82;;;22.80;56.80;;;;;;5049700;28;45416;-73
2022/09/11 10:31:21;;;;;;;2.15;0.80;;;22.90;56.50;;;;;;5055265;28;46640;-74
2022/09/11 10:33:51;;;;;;;1.52;0.90;;;22.90;56.50;;;;;;5059890;28;45300;-73
2022/09/11 10:36:22;;;;;;;0.80;0.77;;;22.90;56.40;;;;;;5046934;28;45191;-73
2022/09/11 10:38:50;;;;;;;1.08;0.98;;;22.90;56.70;;;;;;5047110;28;45417;-74
2022/09/11 10:41:19;;;;;;;1.85;0.80;;;22.90;56.50;;;;;;5039004;28;45221;-74
2022/09/11 10:43:49;;;;;;;0.70;0.70;;;23.00;56.30;;;;;;5026873;28;45223;-74
2022/09/11 10:46:27;;;;;;;0.60;0.60;;;22.90;55.80;;;;;;5026676;28;45271;-74
2022/09/11 10:48:55;;;;;;;3.08;1.10;;;22.90;55.10;;;;;;5027050;28;45555;-74
2022/09/11 10:51:22;;;;;;;0.77;0.77;;;22.90;55.70;;;;;;5026444;28;47560;-74
2022/09/11 10:54:12;;;;;;;0.77;0.77;;;22.90;55.70;;;;;;5026414;28;45319;-74
2022/09/11 10:56:44;;;;;;;1.23;0.88;;;23.00;54.90;;;;;;5026784;28;45255;-74
2022/09/11 10:59:15;;;;;;;0.57;0.57;;;23.00;54.90;;;;;;5026807;28;45381;-74
2022/09/11 11:01:42;;;;;;;2.00;0.82;;;23.00;55.30;;;;;;5026087;28;46639;-74
2022/09/11 11:04:11;;;;;;;0.95;0.70;;;23.00;55.10;;;;;;5026498;28;45302;-74
2022/09/11 11:06:45;;;;;;;2.85;0.70;;;23.00;55.10;;;;;;5026773;28;45326;-74
2022/09/11 11:09:23;;;;;;;0.60;0.60;;;23.00;55.10;;;;;;5026989;28;45250;-74
2022/09/11 11:11:56;;;;;;;1.35;0.80;;;23.00;55.10;;;;;;5025980;28;46700;-74
2022/09/11 11:14:45;;;;;;;0.60;0.60;;;23.00;54.90;;;;;;5026221;28;45256;-74
2022/09/11 11:17:17;;;;;;;1.15;0.80;;;23.00;55.00;;;;;;5043884;28;45331;-74
2022/09/11 11:20:05;;;;;;;0.85;0.75;;;23.10;55.00;;;;;;5046651;28;45287;-75
2022/09/11 11:22:50;;;;;;;0.75;0.75;;;23.20;54.90;;;;;;5045869;28;46399;-74
2022/09/11 11:25:21;;;;;;;1.65;0.80;;;23.30;54.90;;;;;;5058949;28;45521;-74
2022/09/11 11:28:14;;;;;;;1.30;0.70;;;23.30;54.90;;;;;;5066424;28;45257;-74
2022/09/11 11:30:43;;;;;;;1.08;0.70;;;23.40;54.90;;;;;;5065935;28;45447;-74
2022/09/11 11:33:20;;;;;;;1.50;0.90;;;23.50;54.80;;;;;;5066149;28;46622;-74
2022/09/11 11:35:51;;;;;;;1.23;1.00;;;23.50;54.60;;;;;;5066145;28;45419;-74
2022/09/11 11:38:21;;;;;;;1.90;1.00;;;23.60;54.60;;;;;;5066367;28;45216;-74
2022/09/11 11:40:52;;;;;;;3.33;0.88;;;23.70;54.50;;;;;;5065859;28;45395;-73
2022/09/11 11:43:20;;;;;;;1.80;0.80;;;23.70;54.50;;;;;;5065737;28;46571;-74
2022/09/11 11:45:49;;;;;;;1.17;0.75;;;23.70;54.10;;;;;;5066014;28;45323;-74
2022/09/11 11:48:19;;;;;;;1.90;1.00;;;23.80;54.10;;;;;;5061439;28;45145;-72
2022/09/11 11:50:47;;;;;;;3.40;1.08;;;23.90;54.70;;;;;;5065912;28;45657;-74
2022/09/11 11:53:19;;;;;;;1.58;0.80;;;23.90;54.20;;;;;;5065712;28;46767;-73
2022/09/11 11:55:53;;;;;;;3.00;1.20;;;24.00;53.90;;;;;;5045404;28;45237;-74
2022/09/11 11:58:34;;;;;;;5.85;1.23;;;24.00;53.70;;;;;;5043372;28;45287;-73
2022/09/11 12:01:02;;;;;;;1.75;1.00;;;24.10;53.90;;;;;;5057421;28;45276;-78
2022/09/11 12:03:32;;;;;;;2.75;0.90;;;24.20;52.50;;;;;;5085940;28;45415;-79
2022/09/11 12:05:59;;;;;;;1.75;0.80;;;24.20;51.70;;;;;;5070167;28;45371;-77
2022/09/11 12:08:26;;;;;;;0.88;0.75;;;24.30;51.10;;;;;;5062441;28;45479;-77
2022/09/11 12:10:57;;;;;;;1.80;0.90;;;24.40;51.80;;;;;;5065435;28;45505;-77
2022/09/11 12:13:28;;;;;;;1.50;0.95;;;24.40;50.50;;;;;;5060678;28;45540;-77
2022/09/11 12:16:03;;;;;;;1.63;0.98;;;24.40;51.70;;;;;;5063404;28;45178;-77
2022/09/11 12:18:30;;;;;;;1.42;0.68;;;24.40;49.90;;;;;;5063994;28;45527;-76
2022/09/11 12:21:31;;;;;;;1.05;0.80;;;24.50;49.90;;;;;;5065840;28;45451;-75
2022/09/11 12:24:12;;;;;;;1.42;1.05;;;24.60;50.20;;;;;;5061651;28;46682;-78
2022/09/11 12:26:41;;;;;;;5.57;1.10;;;24.70;49.40;;;;;;5062577;28;46283;-78
2022/09/11 12:29:48;;;;;;;1.45;0.85;;;24.70;49.20;;;;;;5063678;28;45422;-75
2022/09/11 12:32:34;;;;;;;4.10;0.85;;;24.70;48.50;;;;;;5061359;28;45455;-79
2022/09/11 12:35:19;;;;;;;1.00;0.90;;;24.70;49.00;;;;;;5060106;28;45444;-81
2022/09/11 12:37:47;;;;;;;1.58;0.70;;;24.70;48.60;;;;;;5065144;28;45545;-80
2022/09/11 12:40:17;;;;;;;2.40;0.90;;;24.80;47.70;;;;;;5066109;28;45315;-81
2022/09/11 12:42:57;;;;;;;3.53;2.30;;;24.70;47.40;;;;;;5051230;28;45630;-80
2022/09/11 12:45:35;;;;;;;3.17;1.75;;;24.60;47.30;;;;;;5063341;28;46667;-79
2022/09/11 12:48:09;;;;;;;4.22;1.40;;;24.50;48.20;;;;;;5064963;28;45362;-78
2022/09/11 12:50:36;;;;;;;1.38;1.20;;;24.60;49.40;;;;;;5064507;28;45375;-80
2022/09/11 12:53:03;;;;;;;1.10;1.00;;;24.60;48.20;;;;;;5064341;28;45428;-78
2022/09/11 12:55:33;;;;;;;1.88;1.10;;;24.70;49.40;;;;;;5067968;28;47342;-77
2022/09/11 12:58:02;;;;;;;3.17;1.45;;;24.80;48.60;;;;;;5068135;28;45424;-77
2022/09/11 13:00:39;;;;;;;2.20;1.20;;;25.00;48.80;;;;;;5066896;28;45415;-77